Antonino, Kansas
Current Conditions -  °F | °C
As of 9:15 PM on Monday 26 Jan 2015 (Local Time) from KHYS Reporting Station
Clear Clear  
Wind Chill: 42°   Ceiling: Unl
Heat Index: 46°   Visibility: 10mi
Dew Point: 27°   Wind: 9mph
Humidity: 46%   Direction: 320°NW
Pressure: 30.09"   Gusts: NA
Location:  38.8338°N, 99.3297°W
Report Text: KHYS 270315Z AUTO 32008KT 10SM CLR 08/M03 A3009 RMK AO1
Loading
Personal Weather Stations






























Interactive Weather Map New forecast layout! Learn more

10-Day Weather Forecast

Advertisements
Track Severe Weather on mobile